sensor_id;sensor_type;location;lat;lon;timestamp;P1;durP1;ratioP1;P2;durP2;ratioP2
809;SDS011;387;48.772;9.186;2022-12-07T00:00:50;16.97;;;8.47;;
809;SDS011;387;48.772;9.186;2022-12-07T00:03:15;15.97;;;8.23;;
809;SDS011;387;48.772;9.186;2022-12-07T00:05:41;17.20;;;8.37;;
809;SDS011;387;48.772;9.186;2022-12-07T00:08:07;14.97;;;7.80;;
809;SDS011;387;48.772;9.186;2022-12-07T00:10:35;16.40;;;8.77;;
809;SDS011;387;48.772;9.186;2022-12-07T00:13:01;17.40;;;8.47;;
809;SDS011;387;48.772;9.186;2022-12-07T00:15:26;16.27;;;9.17;;
809;SDS011;387;48.772;9.186;2022-12-07T00:17:52;21.00;;;8.63;;
809;SDS011;387;48.772;9.186;2022-12-07T00:20:17;17.47;;;8.60;;
809;SDS011;387;48.772;9.186;2022-12-07T00:22:43;15.97;;;8.77;;
809;SDS011;387;48.772;9.186;2022-12-07T00:25:09;14.63;;;8.80;;
809;SDS011;387;48.772;9.186;2022-12-07T00:27:34;23.80;;;9.93;;
809;SDS011;387;48.772;9.186;2022-12-07T00:30:00;16.50;;;8.60;;
809;SDS011;387;48.772;9.186;2022-12-07T00:32:26;16.33;;;9.43;;
809;SDS011;387;48.772;9.186;2022-12-07T00:34:51;19.50;;;9.83;;
809;SDS011;387;48.772;9.186;2022-12-07T00:37:17;19.43;;;10.20;;
809;SDS011;387;48.772;9.186;2022-12-07T00:39:42;16.87;;;8.90;;
809;SDS011;387;48.772;9.186;2022-12-07T00:42:08;17.47;;;10.03;;
809;SDS011;387;48.772;9.186;2022-12-07T00:44:34;17.10;;;10.07;;
809;SDS011;387;48.772;9.186;2022-12-07T00:46:59;17.80;;;10.57;;
809;SDS011;387;48.772;9.186;2022-12-07T00:49:25;21.50;;;10.23;;
809;SDS011;387;48.772;9.186;2022-12-07T00:51:50;21.97;;;10.20;;
809;SDS011;387;48.772;9.186;2022-12-07T00:54:16;19.40;;;10.20;;
809;SDS011;387;48.772;9.186;2022-12-07T00:56:41;19.63;;;10.27;;
809;SDS011;387;48.772;9.186;2022-12-07T00:59:10;19.47;;;10.97;;
809;SDS011;387;48.772;9.186;2022-12-07T01:01:39;24.43;;;10.00;;
809;SDS011;387;48.772;9.186;2022-12-07T01:04:04;18.60;;;10.10;;
809;SDS011;387;48.772;9.186;2022-12-07T01:06:30;20.90;;;10.60;;
809;SDS011;387;48.772;9.186;2022-12-07T01:08:57;18.33;;;9.13;;
809;SDS011;387;48.772;9.186;2022-12-07T01:11:24;19.37;;;9.23;;
809;SDS011;387;48.772;9.186;2022-12-07T01:13:52;21.73;;;10.73;;
809;SDS011;387;48.772;9.186;2022-12-07T01:16:19;22.33;;;10.13;;
809;SDS011;387;48.772;9.186;2022-12-07T01:18:47;20.13;;;11.10;;
809;SDS011;387;48.772;9.186;2022-12-07T01:21:19;20.37;;;9.70;;
809;SDS011;387;48.772;9.186;2022-12-07T01:23:46;19.23;;;11.03;;
809;SDS011;387;48.772;9.186;2022-12-07T01:26:12;20.90;;;10.57;;
809;SDS011;387;48.772;9.186;2022-12-07T01:28:39;22.60;;;10.23;;
809;SDS011;387;48.772;9.186;2022-12-07T01:31:09;23.27;;;9.73;;
809;SDS011;387;48.772;9.186;2022-12-07T01:33:37;19.77;;;9.60;;
809;SDS011;387;48.772;9.186;2022-12-07T01:36:04;20.37;;;9.90;;
809;SDS011;387;48.772;9.186;2022-12-07T01:38:32;20.50;;;10.03;;
809;SDS011;387;48.772;9.186;2022-12-07T01:40:58;17.40;;;8.90;;
809;SDS011;387;48.772;9.186;2022-12-07T01:43:25;16.83;;;8.97;;
809;SDS011;387;48.772;9.186;2022-12-07T01:45:52;19.73;;;10.20;;
809;SDS011;387;48.772;9.186;2022-12-07T01:48:20;20.23;;;10.13;;
809;SDS011;387;48.772;9.186;2022-12-07T01:51:11;13.10;;;8.30;;
809;SDS011;387;48.772;9.186;2022-12-07T01:53:40;21.17;;;9.67;;
809;SDS011;387;48.772;9.186;2022-12-07T01:56:08;18.13;;;10.03;;
809;SDS011;387;48.772;9.186;2022-12-07T01:58:39;19.37;;;10.13;;
809;SDS011;387;48.772;9.186;2022-12-07T02:01:04;20.13;;;9.60;;
809;SDS011;387;48.772;9.186;2022-12-07T02:03:32;19.93;;;8.90;;
809;SDS011;387;48.772;9.186;2022-12-07T02:06:06;17.77;;;9.77;;
809;SDS011;387;48.772;9.186;2022-12-07T02:08:34;22.43;;;9.20;;
809;SDS011;387;48.772;9.186;2022-12-07T02:11:00;24.23;;;10.03;;
809;SDS011;387;48.772;9.186;2022-12-07T02:13:29;16.67;;;9.67;;
809;SDS011;387;48.772;9.186;2022-12-07T02:21:59;14.03;;;7.47;;
809;SDS011;387;48.772;9.186;2022-12-07T02:29:36;19.50;;;9.90;;
809;SDS011;387;48.772;9.186;2022-12-07T02:32:13;18.60;;;9.87;;
809;SDS011;387;48.772;9.186;2022-12-07T02:34:49;17.07;;;8.60;;
809;SDS011;387;48.772;9.186;2022-12-07T02:37:39;18.33;;;8.70;;
809;SDS011;387;48.772;9.186;2022-12-07T02:40:15;17.20;;;9.40;;
809;SDS011;387;48.772;9.186;2022-12-07T02:42:49;16.10;;;8.70;;
809;SDS011;387;48.772;9.186;2022-12-07T02:45:21;20.60;;;9.73;;
809;SDS011;387;48.772;9.186;2022-12-07T02:47:48;18.40;;;9.17;;
809;SDS011;387;48.772;9.186;2022-12-07T02:50:21;19.60;;;9.70;;
809;SDS011;387;48.772;9.186;2022-12-07T02:52:47;21.73;;;10.63;;
809;SDS011;387;48.772;9.186;2022-12-07T02:55:13;22.13;;;9.80;;
809;SDS011;387;48.772;9.186;2022-12-07T03:00:19;17.40;;;8.93;;
809;SDS011;387;48.772;9.186;2022-12-07T03:03:03;18.83;;;9.83;;
809;SDS011;387;48.772;9.186;2022-12-07T03:08:07;16.87;;;9.07;;
809;SDS011;387;48.772;9.186;2022-12-07T03:13:28;19.60;;;9.03;;
809;SDS011;387;48.772;9.186;2022-12-07T03:18:50;17.43;;;8.60;;
809;SDS011;387;48.772;9.186;2022-12-07T03:21:39;16.10;;;8.40;;
809;SDS011;387;48.772;9.186;2022-12-07T03:24:21;20.73;;;9.60;;
809;SDS011;387;48.772;9.186;2022-12-07T03:26:53;19.17;;;9.80;;
809;SDS011;387;48.772;9.186;2022-12-07T03:29:34;19.70;;;8.37;;
809;SDS011;387;48.772;9.186;2022-12-07T03:34:46;16.43;;;8.90;;
809;SDS011;387;48.772;9.186;2022-12-07T03:37:19;16.90;;;9.17;;
809;SDS011;387;48.772;9.186;2022-12-07T03:40:10;16.93;;;8.83;;
809;SDS011;387;48.772;9.186;2022-12-07T03:42:43;19.90;;;9.00;;
809;SDS011;387;48.772;9.186;2022-12-07T03:45:09;17.87;;;9.30;;
809;SDS011;387;48.772;9.186;2022-12-07T03:47:42;18.73;;;9.33;;
809;SDS011;387;48.772;9.186;2022-12-07T03:50:36;18.47;;;8.97;;
809;SDS011;387;48.772;9.186;2022-12-07T03:53:16;16.40;;;9.00;;
809;SDS011;387;48.772;9.186;2022-12-07T03:55:45;18.13;;;8.60;;
809;SDS011;387;48.772;9.186;2022-12-07T03:58:15;17.33;;;8.83;;
809;SDS011;387;48.772;9.186;2022-12-07T04:00:44;16.77;;;8.20;;
809;SDS011;387;48.772;9.186;2022-12-07T04:03:10;19.97;;;9.40;;
809;SDS011;387;48.772;9.186;2022-12-07T04:05:36;18.00;;;8.30;;
809;SDS011;387;48.772;9.186;2022-12-07T04:08:03;20.03;;;9.70;;
809;SDS011;387;48.772;9.186;2022-12-07T04:10:29;21.23;;;9.60;;
809;SDS011;387;48.772;9.186;2022-12-07T04:12:55;17.97;;;9.00;;
809;SDS011;387;48.772;9.186;2022-12-07T04:15:21;18.80;;;9.03;;
809;SDS011;387;48.772;9.186;2022-12-07T04:17:47;19.90;;;9.50;;
809;SDS011;387;48.772;9.186;2022-12-07T04:20:12;14.33;;;8.00;;
809;SDS011;387;48.772;9.186;2022-12-07T04:22:38;19.00;;;8.70;;
809;SDS011;387;48.772;9.186;2022-12-07T04:25:04;14.73;;;8.50;;
809;SDS011;387;48.772;9.186;2022-12-07T04:27:30;18.67;;;9.10;;
809;SDS011;387;48.772;9.186;2022-12-07T04:29:55;16.43;;;8.70;;
809;SDS011;387;48.772;9.186;2022-12-07T04:32:22;20.33;;;10.10;;
809;SDS011;387;48.772;9.186;2022-12-07T04:34:48;16.73;;;8.70;;
809;SDS011;387;48.772;9.186;2022-12-07T04:37:13;20.20;;;8.50;;
809;SDS011;387;48.772;9.186;2022-12-07T04:39:39;18.57;;;9.27;;
809;SDS011;387;48.772;9.186;2022-12-07T04:42:04;17.43;;;9.00;;
809;SDS011;387;48.772;9.186;2022-12-07T04:44:30;16.87;;;8.37;;
809;SDS011;387;48.772;9.186;2022-12-07T04:46:56;17.50;;;8.43;;
809;SDS011;387;48.772;9.186;2022-12-07T04:49:22;13.77;;;7.00;;
809;SDS011;387;48.772;9.186;2022-12-07T04:51:49;14.00;;;7.93;;
809;SDS011;387;48.772;9.186;2022-12-07T04:54:15;12.73;;;6.50;;
809;SDS011;387;48.772;9.186;2022-12-07T04:56:41;12.27;;;6.60;;
809;SDS011;387;48.772;9.186;2022-12-07T04:59:09;12.10;;;5.97;;
809;SDS011;387;48.772;9.186;2022-12-07T05:01:39;12.23;;;5.90;;
809;SDS011;387;48.772;9.186;2022-12-07T05:04:04;7.90;;;4.90;;
809;SDS011;387;48.772;9.186;2022-12-07T05:06:30;8.50;;;4.90;;
809;SDS011;387;48.772;9.186;2022-12-07T05:08:56;9.70;;;5.00;;
809;SDS011;387;48.772;9.186;2022-12-07T05:11:21;6.70;;;3.97;;
809;SDS011;387;48.772;9.186;2022-12-07T05:14:13;5.83;;;3.87;;
809;SDS011;387;48.772;9.186;2022-12-07T05:16:44;8.80;;;5.27;;
809;SDS011;387;48.772;9.186;2022-12-07T05:19:12;10.67;;;5.00;;
809;SDS011;387;48.772;9.186;2022-12-07T05:21:38;9.93;;;5.60;;
809;SDS011;387;48.772;9.186;2022-12-07T05:24:04;8.43;;;5.20;;
809;SDS011;387;48.772;9.186;2022-12-07T05:26:31;10.40;;;6.00;;
809;SDS011;387;48.772;9.186;2022-12-07T05:28:57;10.00;;;5.53;;
809;SDS011;387;48.772;9.186;2022-12-07T05:31:23;11.33;;;5.80;;
809;SDS011;387;48.772;9.186;2022-12-07T05:33:50;12.17;;;6.10;;
809;SDS011;387;48.772;9.186;2022-12-07T05:36:15;16.13;;;6.13;;
809;SDS011;387;48.772;9.186;2022-12-07T05:38:41;15.83;;;6.83;;
809;SDS011;387;48.772;9.186;2022-12-07T05:41:07;13.23;;;6.80;;
809;SDS011;387;48.772;9.186;2022-12-07T05:43:56;11.20;;;6.37;;
809;SDS011;387;48.772;9.186;2022-12-07T05:46:22;15.10;;;6.70;;
809;SDS011;387;48.772;9.186;2022-12-07T05:48:48;13.40;;;6.93;;
809;SDS011;387;48.772;9.186;2022-12-07T05:51:13;13.63;;;6.37;;
809;SDS011;387;48.772;9.186;2022-12-07T05:53:39;15.40;;;7.37;;
809;SDS011;387;48.772;9.186;2022-12-07T05:56:04;15.10;;;7.03;;
809;SDS011;387;48.772;9.186;2022-12-07T05:58:30;14.30;;;7.37;;
809;SDS011;387;48.772;9.186;2022-12-07T06:01:15;22.03;;;8.70;;
809;SDS011;387;48.772;9.186;2022-12-07T06:03:40;14.63;;;7.40;;
809;SDS011;387;48.772;9.186;2022-12-07T06:06:06;17.63;;;7.90;;
809;SDS011;387;48.772;9.186;2022-12-07T06:08:31;13.67;;;7.97;;
809;SDS011;387;48.772;9.186;2022-12-07T06:10:57;14.53;;;7.10;;
809;SDS011;387;48.772;9.186;2022-12-07T06:13:41;12.67;;;6.47;;
809;SDS011;387;48.772;9.186;2022-12-07T06:16:07;15.23;;;6.27;;
809;SDS011;387;48.772;9.186;2022-12-07T06:18:32;14.10;;;7.57;;
809;SDS011;387;48.772;9.186;2022-12-07T06:20:58;14.27;;;7.20;;
809;SDS011;387;48.772;9.186;2022-12-07T06:23:23;15.87;;;7.20;;
809;SDS011;387;48.772;9.186;2022-12-07T06:25:49;13.30;;;7.20;;
809;SDS011;387;48.772;9.186;2022-12-07T06:28:14;12.50;;;6.90;;
809;SDS011;387;48.772;9.186;2022-12-07T06:30:40;22.47;;;7.27;;
809;SDS011;387;48.772;9.186;2022-12-07T06:33:05;12.53;;;6.80;;
809;SDS011;387;48.772;9.186;2022-12-07T06:35:32;13.23;;;7.13;;
809;SDS011;387;48.772;9.186;2022-12-07T06:37:58;13.00;;;7.27;;
809;SDS011;387;48.772;9.186;2022-12-07T06:40:24;13.80;;;6.90;;
809;SDS011;387;48.772;9.186;2022-12-07T06:42:51;12.70;;;6.80;;
809;SDS011;387;48.772;9.186;2022-12-07T06:45:16;13.70;;;7.07;;
809;SDS011;387;48.772;9.186;2022-12-07T06:47:42;15.13;;;7.47;;
809;SDS011;387;48.772;9.186;2022-12-07T06:50:07;25.63;;;7.80;;
809;SDS011;387;48.772;9.186;2022-12-07T06:52:33;17.93;;;6.90;;
809;SDS011;387;48.772;9.186;2022-12-07T06:54:59;13.80;;;6.27;;
809;SDS011;387;48.772;9.186;2022-12-07T06:57:25;17.27;;;7.80;;
809;SDS011;387;48.772;9.186;2022-12-07T06:59:51;12.90;;;6.40;;
809;SDS011;387;48.772;9.186;2022-12-07T07:02:16;11.57;;;6.40;;
809;SDS011;387;48.772;9.186;2022-12-07T07:04:42;11.47;;;5.80;;
809;SDS011;387;48.772;9.186;2022-12-07T07:07:08;10.60;;;4.87;;
809;SDS011;387;48.772;9.186;2022-12-07T07:09:34;12.73;;;6.10;;
809;SDS011;387;48.772;9.186;2022-12-07T07:11:59;14.83;;;7.10;;
809;SDS011;387;48.772;9.186;2022-12-07T07:14:25;15.30;;;7.27;;
809;SDS011;387;48.772;9.186;2022-12-07T07:16:51;11.57;;;6.07;;
809;SDS011;387;48.772;9.186;2022-12-07T07:19:17;13.87;;;6.00;;
809;SDS011;387;48.772;9.186;2022-12-07T07:21:43;12.97;;;6.33;;
809;SDS011;387;48.772;9.186;2022-12-07T07:24:08;12.40;;;6.23;;
809;SDS011;387;48.772;9.186;2022-12-07T07:26:34;16.53;;;6.90;;
809;SDS011;387;48.772;9.186;2022-12-07T07:28:59;12.93;;;6.70;;
809;SDS011;387;48.772;9.186;2022-12-07T07:31:25;12.13;;;5.53;;
809;SDS011;387;48.772;9.186;2022-12-07T07:33:50;17.60;;;6.30;;
809;SDS011;387;48.772;9.186;2022-12-07T07:36:16;10.30;;;6.00;;
809;SDS011;387;48.772;9.186;2022-12-07T07:38:42;14.07;;;5.93;;
809;SDS011;387;48.772;9.186;2022-12-07T07:41:07;14.33;;;6.33;;
809;SDS011;387;48.772;9.186;2022-12-07T07:43:33;10.87;;;5.60;;
809;SDS011;387;48.772;9.186;2022-12-07T07:45:59;23.90;;;6.37;;
809;SDS011;387;48.772;9.186;2022-12-07T07:48:24;37.73;;;8.53;;
809;SDS011;387;48.772;9.186;2022-12-07T07:50:50;22.10;;;6.40;;
809;SDS011;387;48.772;9.186;2022-12-07T07:53:16;13.23;;;6.10;;
809;SDS011;387;48.772;9.186;2022-12-07T07:55:49;12.40;;;6.27;;
809;SDS011;387;48.772;9.186;2022-12-07T07:58:18;11.17;;;6.03;;
809;SDS011;387;48.772;9.186;2022-12-07T08:00:44;10.23;;;5.53;;
809;SDS011;387;48.772;9.186;2022-12-07T08:03:09;11.83;;;6.13;;
809;SDS011;387;48.772;9.186;2022-12-07T08:05:36;12.90;;;5.90;;
809;SDS011;387;48.772;9.186;2022-12-07T08:08:02;15.27;;;6.30;;
809;SDS011;387;48.772;9.186;2022-12-07T08:10:28;10.20;;;5.50;;
809;SDS011;387;48.772;9.186;2022-12-07T08:12:54;12.80;;;5.57;;
809;SDS011;387;48.772;9.186;2022-12-07T08:15:39;15.47;;;6.17;;
809;SDS011;387;48.772;9.186;2022-12-07T08:18:07;16.33;;;6.00;;
809;SDS011;387;48.772;9.186;2022-12-07T08:20:33;14.27;;;6.37;;
809;SDS011;387;48.772;9.186;2022-12-07T08:23:00;14.30;;;6.83;;
809;SDS011;387;48.772;9.186;2022-12-07T08:25:26;9.53;;;5.67;;
809;SDS011;387;48.772;9.186;2022-12-07T08:27:52;12.27;;;6.17;;
809;SDS011;387;48.772;9.186;2022-12-07T08:30:18;13.30;;;6.67;;
809;SDS011;387;48.772;9.186;2022-12-07T08:32:45;11.73;;;5.43;;
809;SDS011;387;48.772;9.186;2022-12-07T08:35:11;18.17;;;6.10;;
809;SDS011;387;48.772;9.186;2022-12-07T08:37:37;15.23;;;6.43;;
809;SDS011;387;48.772;9.186;2022-12-07T08:40:04;13.93;;;7.00;;
809;SDS011;387;48.772;9.186;2022-12-07T08:42:31;9.07;;;5.80;;
809;SDS011;387;48.772;9.186;2022-12-07T08:45:04;22.33;;;7.37;;
809;SDS011;387;48.772;9.186;2022-12-07T08:47:35;19.20;;;6.67;;
809;SDS011;387;48.772;9.186;2022-12-07T08:50:04;15.50;;;7.57;;
809;SDS011;387;48.772;9.186;2022-12-07T08:52:32;10.30;;;5.40;;
809;SDS011;387;48.772;9.186;2022-12-07T08:54:59;17.20;;;6.50;;
809;SDS011;387;48.772;9.186;2022-12-07T08:57:26;15.63;;;7.40;;
809;SDS011;387;48.772;9.186;2022-12-07T08:59:53;17.50;;;6.17;;
809;SDS011;387;48.772;9.186;2022-12-07T09:02:19;12.83;;;6.47;;
809;SDS011;387;48.772;9.186;2022-12-07T09:04:45;11.37;;;5.80;;
809;SDS011;387;48.772;9.186;2022-12-07T09:07:10;11.73;;;6.03;;
809;SDS011;387;48.772;9.186;2022-12-07T09:09:36;11.70;;;5.50;;
809;SDS011;387;48.772;9.186;2022-12-07T09:12:01;12.10;;;5.67;;
809;SDS011;387;48.772;9.186;2022-12-07T09:14:27;11.00;;;5.97;;
809;SDS011;387;48.772;9.186;2022-12-07T09:16:53;8.83;;;4.97;;
809;SDS011;387;48.772;9.186;2022-12-07T09:19:19;12.13;;;5.60;;
809;SDS011;387;48.772;9.186;2022-12-07T09:21:44;10.70;;;5.37;;
809;SDS011;387;48.772;9.186;2022-12-07T09:24:11;10.40;;;5.40;;
809;SDS011;387;48.772;9.186;2022-12-07T09:26:37;9.40;;;4.97;;
809;SDS011;387;48.772;9.186;2022-12-07T09:29:04;12.27;;;5.20;;
809;SDS011;387;48.772;9.186;2022-12-07T09:31:30;10.20;;;5.00;;
809;SDS011;387;48.772;9.186;2022-12-07T09:33:59;11.43;;;5.40;;
809;SDS011;387;48.772;9.186;2022-12-07T09:36:25;9.80;;;5.13;;
809;SDS011;387;48.772;9.186;2022-12-07T09:38:52;11.60;;;5.30;;
809;SDS011;387;48.772;9.186;2022-12-07T09:41:18;13.13;;;5.13;;
809;SDS011;387;48.772;9.186;2022-12-07T09:43:44;14.90;;;5.67;;
809;SDS011;387;48.772;9.186;2022-12-07T09:46:15;8.93;;;4.60;;
809;SDS011;387;48.772;9.186;2022-12-07T09:48:43;8.20;;;4.37;;
809;SDS011;387;48.772;9.186;2022-12-07T09:51:16;10.00;;;4.30;;
809;SDS011;387;48.772;9.186;2022-12-07T09:53:43;14.37;;;4.00;;
809;SDS011;387;48.772;9.186;2022-12-07T09:56:16;9.97;;;4.47;;
809;SDS011;387;48.772;9.186;2022-12-07T09:58:44;8.33;;;4.00;;
809;SDS011;387;48.772;9.186;2022-12-07T10:01:12;9.40;;;4.30;;
809;SDS011;387;48.772;9.186;2022-12-07T10:03:42;14.30;;;4.57;;
809;SDS011;387;48.772;9.186;2022-12-07T10:06:15;7.87;;;4.50;;
809;SDS011;387;48.772;9.186;2022-12-07T10:08:40;8.10;;;4.20;;
809;SDS011;387;48.772;9.186;2022-12-07T10:11:08;8.87;;;4.30;;
809;SDS011;387;48.772;9.186;2022-12-07T10:16:05;10.63;;;3.97;;
809;SDS011;387;48.772;9.186;2022-12-07T10:18:51;14.83;;;4.27;;
809;SDS011;387;48.772;9.186;2022-12-07T10:21:18;7.67;;;4.40;;
809;SDS011;387;48.772;9.186;2022-12-07T10:31:43;10.93;;;3.60;;
809;SDS011;387;48.772;9.186;2022-12-07T10:34:23;6.20;;;3.40;;
809;SDS011;387;48.772;9.186;2022-12-07T10:36:52;7.10;;;3.97;;
809;SDS011;387;48.772;9.186;2022-12-07T10:39:19;6.57;;;4.03;;
809;SDS011;387;48.772;9.186;2022-12-07T10:44:22;8.77;;;3.53;;
809;SDS011;387;48.772;9.186;2022-12-07T10:46:56;6.40;;;2.87;;
809;SDS011;387;48.772;9.186;2022-12-07T10:55:04;6.53;;;3.33;;
809;SDS011;387;48.772;9.186;2022-12-07T11:11:35;7.63;;;4.00;;
809;SDS011;387;48.772;9.186;2022-12-07T11:17:04;9.87;;;3.50;;
809;SDS011;387;48.772;9.186;2022-12-07T11:22:34;7.33;;;3.80;;
809;SDS011;387;48.772;9.186;2022-12-07T11:30:34;9.13;;;4.10;;
809;SDS011;387;48.772;9.186;2022-12-07T11:38:26;8.13;;;3.67;;
809;SDS011;387;48.772;9.186;2022-12-07T11:41:15;8.40;;;3.60;;
809;SDS011;387;48.772;9.186;2022-12-07T11:43:52;5.90;;;3.70;;
809;SDS011;387;48.772;9.186;2022-12-07T11:46:39;7.03;;;4.27;;
809;SDS011;387;48.772;9.186;2022-12-07T11:49:13;8.43;;;4.10;;
809;SDS011;387;48.772;9.186;2022-12-07T11:51:52;9.40;;;3.70;;
809;SDS011;387;48.772;9.186;2022-12-07T11:54:23;6.60;;;4.27;;
809;SDS011;387;48.772;9.186;2022-12-07T11:57:09;7.50;;;4.27;;
809;SDS011;387;48.772;9.186;2022-12-07T11:59:45;4.53;;;3.10;;
809;SDS011;387;48.772;9.186;2022-12-07T12:02:27;5.47;;;3.30;;
809;SDS011;387;48.772;9.186;2022-12-07T12:05:24;7.70;;;4.23;;
809;SDS011;387;48.772;9.186;2022-12-07T12:08:35;11.80;;;5.37;;
809;SDS011;387;48.772;9.186;2022-12-07T12:11:14;7.47;;;4.60;;
809;SDS011;387;48.772;9.186;2022-12-07T12:19:17;11.30;;;5.70;;
809;SDS011;387;48.772;9.186;2022-12-07T12:21:45;12.27;;;6.73;;
809;SDS011;387;48.772;9.186;2022-12-07T12:24:22;10.77;;;5.70;;
809;SDS011;387;48.772;9.186;2022-12-07T12:26:52;8.90;;;5.60;;
809;SDS011;387;48.772;9.186;2022-12-07T12:29:29;14.03;;;6.20;;
809;SDS011;387;48.772;9.186;2022-12-07T12:32:51;13.20;;;6.97;;
809;SDS011;387;48.772;9.186;2022-12-07T12:40:52;16.80;;;7.07;;
809;SDS011;387;48.772;9.186;2022-12-07T12:51:49;11.47;;;6.73;;
809;SDS011;387;48.772;9.186;2022-12-07T12:59:34;13.40;;;6.40;;
809;SDS011;387;48.772;9.186;2022-12-07T13:12:55;12.90;;;5.30;;
809;SDS011;387;48.772;9.186;2022-12-07T13:15:46;10.80;;;5.60;;
809;SDS011;387;48.772;9.186;2022-12-07T13:26:02;9.67;;;5.60;;
809;SDS011;387;48.772;9.186;2022-12-07T13:28:37;12.17;;;5.43;;
809;SDS011;387;48.772;9.186;2022-12-07T13:33:55;8.30;;;4.57;;
809;SDS011;387;48.772;9.186;2022-12-07T13:36:22;11.23;;;6.00;;
809;SDS011;387;48.772;9.186;2022-12-07T13:41:28;9.60;;;5.23;;
809;SDS011;387;48.772;9.186;2022-12-07T13:46:43;11.73;;;5.40;;
809;SDS011;387;48.772;9.186;2022-12-07T13:49:32;6.13;;;3.93;;
809;SDS011;387;48.772;9.186;2022-12-07T13:52:18;7.10;;;4.33;;
809;SDS011;387;48.772;9.186;2022-12-07T13:54:47;6.70;;;4.07;;
809;SDS011;387;48.772;9.186;2022-12-07T13:57:15;6.60;;;4.30;;
809;SDS011;387;48.772;9.186;2022-12-07T13:59:42;28.30;;;12.73;;
809;SDS011;387;48.772;9.186;2022-12-07T14:02:18;10.30;;;5.37;;
809;SDS011;387;48.772;9.186;2022-12-07T14:04:51;14.67;;;5.80;;
809;SDS011;387;48.772;9.186;2022-12-07T14:09:54;9.57;;;5.03;;
809;SDS011;387;48.772;9.186;2022-12-07T14:12:20;9.40;;;5.23;;
809;SDS011;387;48.772;9.186;2022-12-07T14:14:47;9.87;;;5.60;;
809;SDS011;387;48.772;9.186;2022-12-07T14:17:20;11.40;;;4.83;;
809;SDS011;387;48.772;9.186;2022-12-07T14:19:54;7.23;;;4.53;;
809;SDS011;387;48.772;9.186;2022-12-07T14:25:01;11.27;;;5.10;;
809;SDS011;387;48.772;9.186;2022-12-07T14:27:49;9.07;;;5.10;;
809;SDS011;387;48.772;9.186;2022-12-07T14:30:18;8.80;;;5.13;;
809;SDS011;387;48.772;9.186;2022-12-07T14:32:44;9.80;;;5.40;;
809;SDS011;387;48.772;9.186;2022-12-07T14:35:14;9.83;;;5.37;;
809;SDS011;387;48.772;9.186;2022-12-07T14:37:42;10.03;;;5.47;;
809;SDS011;387;48.772;9.186;2022-12-07T14:40:12;8.70;;;5.40;;
809;SDS011;387;48.772;9.186;2022-12-07T14:42:43;7.60;;;4.50;;
809;SDS011;387;48.772;9.186;2022-12-07T14:45:13;19.90;;;6.93;;
809;SDS011;387;48.772;9.186;2022-12-07T14:47:42;12.37;;;5.50;;
809;SDS011;387;48.772;9.186;2022-12-07T14:50:10;11.33;;;6.07;;
809;SDS011;387;48.772;9.186;2022-12-07T14:52:37;9.57;;;5.13;;
809;SDS011;387;48.772;9.186;2022-12-07T14:55:04;10.80;;;5.63;;
809;SDS011;387;48.772;9.186;2022-12-07T14:57:30;8.20;;;5.17;;
809;SDS011;387;48.772;9.186;2022-12-07T14:59:55;12.60;;;6.57;;
809;SDS011;387;48.772;9.186;2022-12-07T15:02:21;22.17;;;6.63;;
809;SDS011;387;48.772;9.186;2022-12-07T15:04:46;11.30;;;6.10;;
809;SDS011;387;48.772;9.186;2022-12-07T15:13:33;10.30;;;6.50;;
809;SDS011;387;48.772;9.186;2022-12-07T15:16:18;16.73;;;5.97;;
809;SDS011;387;48.772;9.186;2022-12-07T15:18:45;13.20;;;5.97;;
809;SDS011;387;48.772;9.186;2022-12-07T15:21:12;13.43;;;6.47;;
809;SDS011;387;48.772;9.186;2022-12-07T15:23:40;9.50;;;5.43;;
809;SDS011;387;48.772;9.186;2022-12-07T15:26:05;16.20;;;7.13;;
809;SDS011;387;48.772;9.186;2022-12-07T15:28:31;17.20;;;6.60;;
809;SDS011;387;48.772;9.186;2022-12-07T15:30:56;13.60;;;5.73;;
809;SDS011;387;48.772;9.186;2022-12-07T15:33:22;12.57;;;6.20;;
809;SDS011;387;48.772;9.186;2022-12-07T15:35:48;10.43;;;6.50;;
809;SDS011;387;48.772;9.186;2022-12-07T15:38:13;12.10;;;6.57;;
809;SDS011;387;48.772;9.186;2022-12-07T15:40:39;14.73;;;5.27;;
809;SDS011;387;48.772;9.186;2022-12-07T15:43:05;14.03;;;6.77;;
809;SDS011;387;48.772;9.186;2022-12-07T15:52:37;10.97;;;6.17;;
809;SDS011;387;48.772;9.186;2022-12-07T15:55:03;10.70;;;5.90;;
809;SDS011;387;48.772;9.186;2022-12-07T15:57:30;15.67;;;6.17;;
809;SDS011;387;48.772;9.186;2022-12-07T15:59:56;12.37;;;6.47;;
809;SDS011;387;48.772;9.186;2022-12-07T16:02:22;16.20;;;6.67;;
809;SDS011;387;48.772;9.186;2022-12-07T16:04:48;9.83;;;7.10;;
809;SDS011;387;48.772;9.186;2022-12-07T16:07:15;18.23;;;8.87;;
809;SDS011;387;48.772;9.186;2022-12-07T16:09:42;14.70;;;6.87;;
809;SDS011;387;48.772;9.186;2022-12-07T16:12:08;14.23;;;7.37;;
809;SDS011;387;48.772;9.186;2022-12-07T16:14:34;14.60;;;7.47;;
809;SDS011;387;48.772;9.186;2022-12-07T16:17:01;14.63;;;6.77;;
809;SDS011;387;48.772;9.186;2022-12-07T16:19:26;12.77;;;6.97;;
809;SDS011;387;48.772;9.186;2022-12-07T16:21:52;10.53;;;6.33;;
809;SDS011;387;48.772;9.186;2022-12-07T16:24:17;15.73;;;7.27;;
809;SDS011;387;48.772;9.186;2022-12-07T16:26:43;13.97;;;7.00;;
809;SDS011;387;48.772;9.186;2022-12-07T16:29:13;15.60;;;7.67;;
809;SDS011;387;48.772;9.186;2022-12-07T16:31:39;14.03;;;7.13;;
809;SDS011;387;48.772;9.186;2022-12-07T16:34:05;17.57;;;7.70;;
809;SDS011;387;48.772;9.186;2022-12-07T16:36:32;14.07;;;7.30;;
809;SDS011;387;48.772;9.186;2022-12-07T16:38:58;16.10;;;8.00;;
809;SDS011;387;48.772;9.186;2022-12-07T16:41:25;16.27;;;7.40;;
809;SDS011;387;48.772;9.186;2022-12-07T16:43:51;16.13;;;7.80;;
809;SDS011;387;48.772;9.186;2022-12-07T16:46:16;17.93;;;8.60;;
809;SDS011;387;48.772;9.186;2022-12-07T16:48:42;15.83;;;8.20;;
809;SDS011;387;48.772;9.186;2022-12-07T16:51:09;19.67;;;9.90;;
809;SDS011;387;48.772;9.186;2022-12-07T16:53:36;15.33;;;8.47;;
809;SDS011;387;48.772;9.186;2022-12-07T16:56:03;15.40;;;8.27;;
809;SDS011;387;48.772;9.186;2022-12-07T16:58:30;15.57;;;8.03;;
809;SDS011;387;48.772;9.186;2022-12-07T17:00:56;14.50;;;8.30;;
809;SDS011;387;48.772;9.186;2022-12-07T17:03:22;17.30;;;8.30;;
809;SDS011;387;48.772;9.186;2022-12-07T17:05:47;18.90;;;8.43;;
809;SDS011;387;48.772;9.186;2022-12-07T17:08:14;16.80;;;8.50;;
809;SDS011;387;48.772;9.186;2022-12-07T17:10:41;19.33;;;9.03;;
809;SDS011;387;48.772;9.186;2022-12-07T17:13:09;19.70;;;9.17;;
809;SDS011;387;48.772;9.186;2022-12-07T17:15:57;19.00;;;9.50;;
809;SDS011;387;48.772;9.186;2022-12-07T17:18:26;23.10;;;10.17;;
809;SDS011;387;48.772;9.186;2022-12-07T17:21:01;23.50;;;9.83;;
809;SDS011;387;48.772;9.186;2022-12-07T17:23:31;17.30;;;9.50;;
809;SDS011;387;48.772;9.186;2022-12-07T17:26:03;16.43;;;9.73;;
809;SDS011;387;48.772;9.186;2022-12-07T17:28:33;18.10;;;9.00;;
809;SDS011;387;48.772;9.186;2022-12-07T17:31:05;20.20;;;8.70;;
809;SDS011;387;48.772;9.186;2022-12-07T17:33:32;17.87;;;9.00;;
809;SDS011;387;48.772;9.186;2022-12-07T17:35:59;15.90;;;9.73;;
809;SDS011;387;48.772;9.186;2022-12-07T17:38:25;14.97;;;9.00;;
809;SDS011;387;48.772;9.186;2022-12-07T17:40:52;16.50;;;8.50;;
809;SDS011;387;48.772;9.186;2022-12-07T17:43:18;19.30;;;9.10;;
809;SDS011;387;48.772;9.186;2022-12-07T17:45:44;16.80;;;9.80;;
809;SDS011;387;48.772;9.186;2022-12-07T17:48:09;20.37;;;9.30;;
809;SDS011;387;48.772;9.186;2022-12-07T17:50:36;19.60;;;10.10;;
809;SDS011;387;48.772;9.186;2022-12-07T17:53:22;18.03;;;8.80;;
809;SDS011;387;48.772;9.186;2022-12-07T17:55:48;15.50;;;8.10;;
809;SDS011;387;48.772;9.186;2022-12-07T17:58:18;18.50;;;9.07;;
809;SDS011;387;48.772;9.186;2022-12-07T18:00:43;21.23;;;9.30;;
809;SDS011;387;48.772;9.186;2022-12-07T18:03:09;17.63;;;8.40;;
809;SDS011;387;48.772;9.186;2022-12-07T18:05:36;16.33;;;7.47;;
809;SDS011;387;48.772;9.186;2022-12-07T18:08:02;18.53;;;9.30;;